sensor_id;sensor_type;location;lat;lon;timestamp;pressure;altitude;pressure_sealevel;temperature;humidity
61573;BME280;47465;43.094;12.434;2022-11-06T00:00:53;98388.56;;;10.70;66.73
61573;BME280;47465;43.094;12.434;2022-11-06T00:03:19;98389.03;;;10.83;65.96
61573;BME280;47465;43.094;12.434;2022-11-06T00:05:46;98412.84;;;11.13;65.37
61573;BME280;47465;43.094;12.434;2022-11-06T00:08:46;98401.19;;;10.90;66.78
61573;BME280;47465;43.094;12.434;2022-11-06T00:11:16;98400.50;;;10.85;66.72
61573;BME280;47465;43.094;12.434;2022-11-06T00:13:43;98433.72;;;10.98;66.71
61573;BME280;47465;43.094;12.434;2022-11-06T00:16:11;98410.50;;;10.77;66.90
61573;BME280;47465;43.094;12.434;2022-11-06T00:18:38;98385.34;;;10.87;66.38
61573;BME280;47465;43.094;12.434;2022-11-06T00:21:09;98396.28;;;11.04;64.97
61573;BME280;47465;43.094;12.434;2022-11-06T00:23:35;98402.28;;;11.09;64.79
61573;BME280;47465;43.094;12.434;2022-11-06T00:26:06;98404.91;;;11.11;65.16
61573;BME280;47465;43.094;12.434;2022-11-06T00:28:32;98411.03;;;11.13;65.15
61573;BME280;47465;43.094;12.434;2022-11-06T00:31:02;98406.53;;;11.15;64.33
61573;BME280;47465;43.094;12.434;2022-11-06T00:33:29;98403.59;;;11.23;63.27
61573;BME280;47465;43.094;12.434;2022-11-06T00:36:01;98409.69;;;11.26;63.16
61573;BME280;47465;43.094;12.434;2022-11-06T00:38:27;98406.84;;;11.31;63.10
61573;BME280;47465;43.094;12.434;2022-11-06T00:40:54;98411.28;;;11.32;63.56
61573;BME280;47465;43.094;12.434;2022-11-06T00:43:21;98404.97;;;11.35;62.68
61573;BME280;47465;43.094;12.434;2022-11-06T00:45:47;98434.69;;;11.47;63.50
61573;BME280;47465;43.094;12.434;2022-11-06T00:48:13;98421.84;;;11.34;63.46
61573;BME280;47465;43.094;12.434;2022-11-06T00:50:43;98417.50;;;11.31;63.94
61573;BME280;47465;43.094;12.434;2022-11-06T00:53:11;98415.22;;;11.20;64.08
61573;BME280;47465;43.094;12.434;2022-11-06T00:55:40;98406.63;;;11.12;64.51
61573;BME280;47465;43.094;12.434;2022-11-06T00:58:06;98410.38;;;11.06;65.04
61573;BME280;47465;43.094;12.434;2022-11-06T01:00:33;98439.09;;;11.23;65.49
61573;BME280;47465;43.094;12.434;2022-11-06T01:03:00;98438.34;;;11.18;65.07
61573;BME280;47465;43.094;12.434;2022-11-06T01:05:33;98417.41;;;11.09;64.83
61573;BME280;47465;43.094;12.434;2022-11-06T01:07:59;98424.19;;;11.18;64.34
61573;BME280;47465;43.094;12.434;2022-11-06T01:10:25;98412.56;;;11.20;63.83
61573;BME280;47465;43.094;12.434;2022-11-06T01:12:51;98434.94;;;11.40;62.90
61573;BME280;47465;43.094;12.434;2022-11-06T01:15:17;98435.88;;;11.39;63.21
61573;BME280;47465;43.094;12.434;2022-11-06T01:17:45;98429.19;;;11.27;62.92
61573;BME280;47465;43.094;12.434;2022-11-06T01:20:11;98426.69;;;11.22;63.27
61573;BME280;47465;43.094;12.434;2022-11-06T01:22:40;98462.53;;;11.37;63.44
61573;BME280;47465;43.094;12.434;2022-11-06T01:25:07;98442.69;;;11.21;63.79
61573;BME280;47465;43.094;12.434;2022-11-06T01:27:34;98478.69;;;11.33;63.80
61573;BME280;47465;43.094;12.434;2022-11-06T01:30:00;98461.25;;;11.24;64.39
61573;BME280;47465;43.094;12.434;2022-11-06T01:32:26;98471.94;;;11.22;64.34
61573;BME280;47465;43.094;12.434;2022-11-06T01:34:54;98455.19;;;11.19;63.97
61573;BME280;47465;43.094;12.434;2022-11-06T01:37:21;98462.09;;;11.24;63.75
61573;BME280;47465;43.094;12.434;2022-11-06T01:39:48;98465.84;;;11.19;64.04
61573;BME280;47465;43.094;12.434;2022-11-06T01:42:15;98467.53;;;11.21;63.68
61573;BME280;47465;43.094;12.434;2022-11-06T01:45:28;98462.16;;;11.23;63.38
61573;BME280;47465;43.094;12.434;2022-11-06T01:47:58;98470.69;;;11.33;63.92
61573;BME280;47465;43.094;12.434;2022-11-06T01:50:27;98463.03;;;11.23;63.20
61573;BME280;47465;43.094;12.434;2022-11-06T01:52:54;98453.09;;;11.28;62.66
61573;BME280;47465;43.094;12.434;2022-11-06T01:55:25;98446.75;;;11.33;62.08
61573;BME280;47465;43.094;12.434;2022-11-06T01:57:53;98465.25;;;11.36;62.89
61573;BME280;47465;43.094;12.434;2022-11-06T02:00:20;98464.38;;;11.35;63.41
61573;BME280;47465;43.094;12.434;2022-11-06T02:02:46;98475.94;;;11.34;63.54
61573;BME280;47465;43.094;12.434;2022-11-06T02:05:13;98480.16;;;11.41;63.04
61573;BME280;47465;43.094;12.434;2022-11-06T02:07:40;98491.53;;;11.45;63.79
61573;BME280;47465;43.094;12.434;2022-11-06T02:10:10;98484.81;;;11.35;64.42
61573;BME280;47465;43.094;12.434;2022-11-06T02:12:49;98485.72;;;11.34;64.93
61573;BME280;47465;43.094;12.434;2022-11-06T02:15:25;98463.56;;;11.33;64.57
61573;BME280;47465;43.094;12.434;2022-11-06T02:18:06;98499.13;;;11.57;64.62
61573;BME280;47465;43.094;12.434;2022-11-06T02:20:42;98468.03;;;11.33;65.71
61573;BME280;47465;43.094;12.434;2022-11-06T02:23:28;98463.75;;;11.28;65.81
61573;BME280;47465;43.094;12.434;2022-11-06T02:26:12;98457.09;;;11.40;65.19
61573;BME280;47465;43.094;12.434;2022-11-06T02:28:46;98478.97;;;11.50;65.71
61573;BME280;47465;43.094;12.434;2022-11-06T02:31:19;98453.09;;;11.28;65.81
61573;BME280;47465;43.094;12.434;2022-11-06T02:33:50;98492.53;;;11.42;66.47
61573;BME280;47465;43.094;12.434;2022-11-06T02:36:26;98464.63;;;11.27;66.70
61573;BME280;47465;43.094;12.434;2022-11-06T02:38:57;98471.72;;;11.28;67.28
61573;BME280;47465;43.094;12.434;2022-11-06T02:41:30;98487.38;;;11.38;66.92
61573;BME280;47465;43.094;12.434;2022-11-06T02:44:00;98483.03;;;11.35;66.84
61573;BME280;47465;43.094;12.434;2022-11-06T02:46:31;98490.06;;;11.36;67.04
61573;BME280;47465;43.094;12.434;2022-11-06T02:49:01;98484.69;;;11.38;66.87
61573;BME280;47465;43.094;12.434;2022-11-06T02:51:29;98470.78;;;11.29;67.08
61573;BME280;47465;43.094;12.434;2022-11-06T02:53:59;98492.81;;;11.35;68.20
61573;BME280;47465;43.094;12.434;2022-11-06T02:56:30;98471.13;;;11.20;67.80
61573;BME280;47465;43.094;12.434;2022-11-06T02:59:01;98479.09;;;11.20;68.95
61573;BME280;47465;43.094;12.434;2022-11-06T03:01:32;98490.56;;;11.22;69.06
61573;BME280;47465;43.094;12.434;2022-11-06T03:04:02;98471.13;;;11.20;68.11
61573;BME280;47465;43.094;12.434;2022-11-06T03:06:33;98474.75;;;11.18;68.32
61573;BME280;47465;43.094;12.434;2022-11-06T03:09:03;98484.41;;;11.20;68.88
61573;BME280;47465;43.094;12.434;2022-11-06T03:11:33;98470.41;;;11.15;68.80
61573;BME280;47465;43.094;12.434;2022-11-06T03:14:08;98478.31;;;11.17;68.73
61573;BME280;47465;43.094;12.434;2022-11-06T03:16:45;98485.34;;;11.19;68.43
61573;BME280;47465;43.094;12.434;2022-11-06T03:19:24;98504.69;;;11.24;68.48
61573;BME280;47465;43.094;12.434;2022-11-06T03:21:56;98481.25;;;11.09;68.33
61573;BME280;47465;43.094;12.434;2022-11-06T03:24:27;98485.63;;;11.10;68.72
61573;BME280;47465;43.094;12.434;2022-11-06T03:26:55;98490.91;;;11.12;68.39
61573;BME280;47465;43.094;12.434;2022-11-06T03:29:27;98492.69;;;11.13;68.03
61573;BME280;47465;43.094;12.434;2022-11-06T03:31:57;98503.09;;;11.19;67.72
61573;BME280;47465;43.094;12.434;2022-11-06T03:34:30;98519.63;;;11.28;67.52
61573;BME280;47465;43.094;12.434;2022-11-06T03:37:01;98495.09;;;11.19;67.98
61573;BME280;47465;43.094;12.434;2022-11-06T03:39:36;98521.38;;;11.29;67.96
61573;BME280;47465;43.094;12.434;2022-11-06T03:42:08;98514.31;;;11.28;67.53
61573;BME280;47465;43.094;12.434;2022-11-06T03:44:39;98511.84;;;11.22;67.54
61573;BME280;47465;43.094;12.434;2022-11-06T03:47:11;98509.38;;;11.16;68.16
61573;BME280;47465;43.094;12.434;2022-11-06T03:49:41;98527.94;;;11.19;69.13
61573;BME280;47465;43.094;12.434;2022-11-06T03:52:10;98512.31;;;11.08;68.21
61573;BME280;47465;43.094;12.434;2022-11-06T03:54:42;98546.09;;;11.33;67.69
61573;BME280;47465;43.094;12.434;2022-11-06T03:57:12;98534.94;;;11.22;68.46
61573;BME280;47465;43.094;12.434;2022-11-06T03:59:45;98549.06;;;11.24;67.63
61573;BME280;47465;43.094;12.434;2022-11-06T04:02:12;98533.50;;;11.12;67.55
61573;BME280;47465;43.094;12.434;2022-11-06T04:04:44;98524.81;;;11.06;68.58
61573;BME280;47465;43.094;12.434;2022-11-06T04:07:14;98509.25;;;10.94;68.49
61573;BME280;47465;43.094;12.434;2022-11-06T04:09:45;98512.84;;;10.93;68.14
61573;BME280;47465;43.094;12.434;2022-11-06T04:12:45;98522.25;;;10.75;70.23
61573;BME280;47465;43.094;12.434;2022-11-06T04:15:55;98533.19;;;10.66;68.90
61573;BME280;47465;43.094;12.434;2022-11-06T04:18:22;98536.13;;;10.57;69.15
61573;BME280;47465;43.094;12.434;2022-11-06T04:20:51;98547.78;;;10.53;71.10
61573;BME280;47465;43.094;12.434;2022-11-06T04:24:07;98532.59;;;10.26;70.35
61573;BME280;47465;43.094;12.434;2022-11-06T04:27:42;98550.91;;;10.37;70.11
61573;BME280;47465;43.094;12.434;2022-11-06T04:30:14;98532.75;;;10.20;69.60
61573;BME280;47465;43.094;12.434;2022-11-06T04:33:03;98553.78;;;10.30;69.30
61573;BME280;47465;43.094;12.434;2022-11-06T04:35:42;98542.81;;;10.11;69.07
61573;BME280;47465;43.094;12.434;2022-11-06T04:38:20;98560.31;;;10.18;69.08
61573;BME280;47465;43.094;12.434;2022-11-06T04:40:52;98568.16;;;10.21;69.01
61573;BME280;47465;43.094;12.434;2022-11-06T04:43:25;98537.72;;;10.01;68.50
61573;BME280;47465;43.094;12.434;2022-11-06T04:45:55;98541.22;;;10.03;68.09
61573;BME280;47465;43.094;12.434;2022-11-06T04:48:24;98543.69;;;10.10;68.01
61573;BME280;47465;43.094;12.434;2022-11-06T04:50:55;98564.44;;;10.28;66.96
61573;BME280;47465;43.094;12.434;2022-11-06T04:53:24;98530.41;;;10.10;67.37
61573;BME280;47465;43.094;12.434;2022-11-06T04:55:55;98539.50;;;10.02;67.68
61573;BME280;47465;43.094;12.434;2022-11-06T04:58:26;98537.88;;;9.97;68.02
61573;BME280;47465;43.094;12.434;2022-11-06T05:00:53;98531.88;;;9.88;68.69
61573;BME280;47465;43.094;12.434;2022-11-06T05:03:21;98549.34;;;9.97;68.45
61573;BME280;47465;43.094;12.434;2022-11-06T05:05:52;98545.94;;;9.94;68.21
61573;BME280;47465;43.094;12.434;2022-11-06T05:08:21;98556.63;;;9.91;68.55
61573;BME280;47465;43.094;12.434;2022-11-06T05:10:47;98548.25;;;9.73;69.28
61573;BME280;47465;43.094;12.434;2022-11-06T05:13:13;98569.88;;;9.92;68.78
61573;BME280;47465;43.094;12.434;2022-11-06T05:15:43;98563.88;;;9.84;68.94
61573;BME280;47465;43.094;12.434;2022-11-06T05:18:09;98554.63;;;9.99;67.96
61573;BME280;47465;43.094;12.434;2022-11-06T05:20:35;98565.25;;;9.99;68.13
61573;BME280;47465;43.094;12.434;2022-11-06T05:23:01;98549.91;;;9.77;70.33
61573;BME280;47465;43.094;12.434;2022-11-06T05:25:29;98550.31;;;9.63;69.48
61573;BME280;47465;43.094;12.434;2022-11-06T05:27:57;98563.31;;;9.73;70.37
61573;BME280;47465;43.094;12.434;2022-11-06T05:30:26;98566.19;;;9.65;70.56
61573;BME280;47465;43.094;12.434;2022-11-06T05:32:54;98559.09;;;9.31;74.16
61573;BME280;47465;43.094;12.434;2022-11-06T05:35:20;98567.63;;;9.44;71.41
61573;BME280;47465;43.094;12.434;2022-11-06T05:37:46;98559.69;;;9.42;71.91
61573;BME280;47465;43.094;12.434;2022-11-06T05:40:12;98553.03;;;9.26;73.76
61573;BME280;47465;43.094;12.434;2022-11-06T05:42:39;98570.56;;;9.32;72.11
61573;BME280;47465;43.094;12.434;2022-11-06T05:45:07;98566.84;;;9.39;71.61
61573;BME280;47465;43.094;12.434;2022-11-06T05:47:33;98558.31;;;9.60;70.23
61573;BME280;47465;43.094;12.434;2022-11-06T05:50:01;98600.38;;;9.77;70.90
61573;BME280;47465;43.094;12.434;2022-11-06T05:52:27;98572.69;;;9.53;71.76
61573;BME280;47465;43.094;12.434;2022-11-06T05:54:53;98586.50;;;9.66;70.01
61573;BME280;47465;43.094;12.434;2022-11-06T05:57:19;98613.69;;;9.76;69.82
61573;BME280;47465;43.094;12.434;2022-11-06T05:59:45;98594.00;;;9.50;72.47
61573;BME280;47465;43.094;12.434;2022-11-06T06:02:11;98622.78;;;9.31;74.74
61573;BME280;47465;43.094;12.434;2022-11-06T06:04:37;98619.47;;;9.21;73.52
61573;BME280;47465;43.094;12.434;2022-11-06T06:07:04;98625.28;;;9.00;76.41
61573;BME280;47465;43.094;12.434;2022-11-06T06:09:33;98633.44;;;8.91;77.04
61573;BME280;47465;43.094;12.434;2022-11-06T06:12:00;98623.19;;;8.75;78.73
61573;BME280;47465;43.094;12.434;2022-11-06T06:14:26;98631.72;;;8.90;75.97
61573;BME280;47465;43.094;12.434;2022-11-06T06:16:52;98624.81;;;9.20;73.60
61573;BME280;47465;43.094;12.434;2022-11-06T06:19:20;98621.81;;;9.35;71.72
61573;BME280;47465;43.094;12.434;2022-11-06T06:21:46;98648.78;;;9.54;72.43
61573;BME280;47465;43.094;12.434;2022-11-06T06:24:13;98649.75;;;9.50;74.15
61573;BME280;47465;43.094;12.434;2022-11-06T06:26:39;98625.50;;;9.28;72.51
61573;BME280;47465;43.094;12.434;2022-11-06T06:29:09;98634.34;;;9.29;74.63
61573;BME280;47465;43.094;12.434;2022-11-06T06:31:36;98630.63;;;9.36;70.92
61573;BME280;47465;43.094;12.434;2022-11-06T06:34:03;98623.94;;;9.57;69.86
61573;BME280;47465;43.094;12.434;2022-11-06T06:36:29;98642.97;;;9.73;70.14
61573;BME280;47465;43.094;12.434;2022-11-06T06:38:55;98632.63;;;9.62;73.00
61573;BME280;47465;43.094;12.434;2022-11-06T06:41:22;98635.16;;;9.66;72.67
61573;BME280;47465;43.094;12.434;2022-11-06T06:43:48;98630.69;;;9.69;70.04
61573;BME280;47465;43.094;12.434;2022-11-06T06:46:14;98627.50;;;9.88;68.93
61573;BME280;47465;43.094;12.434;2022-11-06T06:48:40;98634.47;;;9.93;69.16
61573;BME280;47465;43.094;12.434;2022-11-06T06:51:06;98634.59;;;9.88;71.64
61573;BME280;47465;43.094;12.434;2022-11-06T06:53:34;98650.50;;;9.91;70.08
61573;BME280;47465;43.094;12.434;2022-11-06T06:56:00;98651.66;;;10.14;68.34
61573;BME280;47465;43.094;12.434;2022-11-06T06:58:28;98658.97;;;10.38;67.60
61573;BME280;47465;43.094;12.434;2022-11-06T07:00:54;98656.06;;;10.47;66.62
61573;BME280;47465;43.094;12.434;2022-11-06T07:03:23;98651.56;;;10.50;66.29
61573;BME280;47465;43.094;12.434;2022-11-06T07:05:49;98671.81;;;10.54;66.91
61573;BME280;47465;43.094;12.434;2022-11-06T07:08:15;98665.66;;;10.52;66.86
61573;BME280;47465;43.094;12.434;2022-11-06T07:10:41;98669.13;;;10.55;66.98
61573;BME280;47465;43.094;12.434;2022-11-06T07:13:07;98661.09;;;10.57;66.80
61573;BME280;47465;43.094;12.434;2022-11-06T07:15:34;98692.44;;;10.77;68.03
61573;BME280;47465;43.094;12.434;2022-11-06T07:18:01;98680.53;;;10.90;65.37
61573;BME280;47465;43.094;12.434;2022-11-06T07:20:27;98679.00;;;11.11;64.74
61573;BME280;47465;43.094;12.434;2022-11-06T07:22:53;98677.53;;;11.30;64.72
61573;BME280;47465;43.094;12.434;2022-11-06T07:25:20;98671.75;;;11.44;63.80
61573;BME280;47465;43.094;12.434;2022-11-06T07:27:46;98691.44;;;11.67;64.21
61573;BME280;47465;43.094;12.434;2022-11-06T07:30:12;98682.69;;;11.63;64.16
61573;BME280;47465;43.094;12.434;2022-11-06T07:32:39;98683.22;;;11.73;63.25
61573;BME280;47465;43.094;12.434;2022-11-06T07:35:06;98678.53;;;11.81;62.38
61573;BME280;47465;43.094;12.434;2022-11-06T07:37:32;98678.19;;;11.92;62.32
61573;BME280;47465;43.094;12.434;2022-11-06T07:39:59;98669.63;;;12.09;61.43
61573;BME280;47465;43.094;12.434;2022-11-06T07:42:26;98672.72;;;12.22;60.89
61573;BME280;47465;43.094;12.434;2022-11-06T07:44:52;98695.38;;;12.35;61.84
61573;BME280;47465;43.094;12.434;2022-11-06T07:47:20;98672.00;;;12.42;61.91
61573;BME280;47465;43.094;12.434;2022-11-06T07:49:47;98677.78;;;12.54;60.63
61573;BME280;47465;43.094;12.434;2022-11-06T07:52:13;98674.34;;;12.51;61.01
61573;BME280;47465;43.094;12.434;2022-11-06T07:54:39;98688.06;;;12.65;61.71
61573;BME280;47465;43.094;12.434;2022-11-06T07:57:07;98703.19;;;12.65;61.69
61573;BME280;47465;43.094;12.434;2022-11-06T07:59:34;98670.72;;;12.53;62.31
61573;BME280;47465;43.094;12.434;2022-11-06T08:02:00;98671.84;;;12.46;62.49
61573;BME280;47465;43.094;12.434;2022-11-06T08:04:29;98702.84;;;12.74;63.28
61573;BME280;47465;43.094;12.434;2022-11-06T08:06:57;98701.50;;;12.86;62.83
61573;BME280;47465;43.094;12.434;2022-11-06T08:09:23;98670.66;;;12.79;62.02
61573;BME280;47465;43.094;12.434;2022-11-06T08:11:50;98681.25;;;12.82;61.86
61573;BME280;47465;43.094;12.434;2022-11-06T08:14:16;98672.00;;;12.67;62.14
61573;BME280;47465;43.094;12.434;2022-11-06T08:16:42;98681.38;;;12.77;61.69
61573;BME280;47465;43.094;12.434;2022-11-06T08:19:07;98670.78;;;12.76;61.69
61573;BME280;47465;43.094;12.434;2022-11-06T08:21:34;98685.69;;;13.05;62.07
61573;BME280;47465;43.094;12.434;2022-11-06T08:24:01;98689.28;;;12.80;61.56
61573;BME280;47465;43.094;12.434;2022-11-06T08:26:28;98694.69;;;12.79;61.05
61573;BME280;47465;43.094;12.434;2022-11-06T08:28:54;98704.19;;;13.09;61.77
61573;BME280;47465;43.094;12.434;2022-11-06T08:31:21;98679.25;;;13.10;61.90
61573;BME280;47465;43.094;12.434;2022-11-06T08:33:47;98669.63;;;13.06;61.60
61573;BME280;47465;43.094;12.434;2022-11-06T08:36:12;98669.78;;;13.25;61.41
61573;BME280;47465;43.094;12.434;2022-11-06T08:38:40;98686.06;;;13.41;61.59
61573;BME280;47465;43.094;12.434;2022-11-06T08:41:09;98682.66;;;13.60;60.54
61573;BME280;47465;43.094;12.434;2022-11-06T08:43:36;98657.97;;;13.53;60.77
61573;BME280;47465;43.094;12.434;2022-11-06T08:46:03;98686.28;;;13.59;60.50
61573;BME280;47465;43.094;12.434;2022-11-06T08:48:30;98673.34;;;13.48;60.33
61573;BME280;47465;43.094;12.434;2022-11-06T08:50:58;98697.94;;;13.78;58.95
61573;BME280;47465;43.094;12.434;2022-11-06T08:53:26;98680.84;;;13.82;59.03
61573;BME280;47465;43.094;12.434;2022-11-06T08:55:53;98670.72;;;13.68;58.70
61573;BME280;47465;43.094;12.434;2022-11-06T08:58:20;98672.44;;;13.91;59.46
61573;BME280;47465;43.094;12.434;2022-11-06T09:00:46;98672.13;;;13.99;58.13
61573;BME280;47465;43.094;12.434;2022-11-06T09:03:14;98672.13;;;13.99;57.50
61573;BME280;47465;43.094;12.434;2022-11-06T09:05:42;98674.09;;;13.94;58.03
61573;BME280;47465;43.094;12.434;2022-11-06T09:08:09;98688.69;;;14.07;58.30
61573;BME280;47465;43.094;12.434;2022-11-06T09:10:36;98691.22;;;13.90;57.98
61573;BME280;47465;43.094;12.434;2022-11-06T09:13:02;98696.59;;;14.10;57.08
61573;BME280;47465;43.094;12.434;2022-11-06T09:15:30;98687.97;;;14.04;56.02
61573;BME280;47465;43.094;12.434;2022-11-06T09:17:56;98697.50;;;14.09;56.28
61573;BME280;47465;43.094;12.434;2022-11-06T09:20:23;98694.53;;;14.17;56.74
61573;BME280;47465;43.094;12.434;2022-11-06T09:22:50;98705.16;;;14.39;56.06
61573;BME280;47465;43.094;12.434;2022-11-06T09:25:19;98699.13;;;14.54;55.83
61573;BME280;47465;43.094;12.434;2022-11-06T09:27:47;98690.41;;;14.71;55.13
61573;BME280;47465;43.094;12.434;2022-11-06T09:30:15;98691.34;;;14.70;53.92
61573;BME280;47465;43.094;12.434;2022-11-06T09:32:46;98676.09;;;14.31;55.28
61573;BME280;47465;43.094;12.434;2022-11-06T09:35:12;98676.88;;;14.54;54.72
61573;BME280;47465;43.094;12.434;2022-11-06T09:37:38;98674.34;;;14.71;54.83
61573;BME280;47465;43.094;12.434;2022-11-06T09:40:06;98680.66;;;14.89;55.96
61573;BME280;47465;43.094;12.434;2022-11-06T09:42:42;98692.97;;;14.93;55.19
61573;BME280;47465;43.094;12.434;2022-11-06T09:45:19;98659.59;;;14.82;56.01
61573;BME280;47465;43.094;12.434;2022-11-06T09:47:57;98666.50;;;14.67;56.47
61573;BME280;47465;43.094;12.434;2022-11-06T09:50:29;98678.59;;;14.75;55.00
61573;BME280;47465;43.094;12.434;2022-11-06T09:52:59;98675.28;;;14.89;54.96
61573;BME280;47465;43.094;12.434;2022-11-06T09:55:31;98662.59;;;14.94;54.02
61573;BME280;47465;43.094;12.434;2022-11-06T09:58:00;98667.56;;;15.02;53.37
61573;BME280;47465;43.094;12.434;2022-11-06T10:00:30;98671.41;;;14.96;53.08
61573;BME280;47465;43.094;12.434;2022-11-06T10:03:04;98675.25;;;15.10;55.13
61573;BME280;47465;43.094;12.434;2022-11-06T10:05:35;98670.53;;;15.15;54.83
61573;BME280;47465;43.094;12.434;2022-11-06T10:08:08;98674.28;;;15.30;53.88
61573;BME280;47465;43.094;12.434;2022-11-06T10:10:44;98669.28;;;15.22;55.37
61573;BME280;47465;43.094;12.434;2022-11-06T10:13:21;98682.63;;;15.43;56.77
61573;BME280;47465;43.094;12.434;2022-11-06T10:15:55;98656.19;;;15.35;55.36
61573;BME280;47465;43.094;12.434;2022-11-06T10:18:35;98695.22;;;15.40;54.76
61573;BME280;47465;43.094;12.434;2022-11-06T10:21:08;98675.66;;;15.00;54.36
61573;BME280;47465;43.094;12.434;2022-11-06T10:23:43;98676.84;;;15.14;52.69
61573;BME280;47465;43.094;12.434;2022-11-06T10:26:13;98680.38;;;15.14;52.03
61573;BME280;47465;43.094;12.434;2022-11-06T10:29:06;98665.63;;;15.06;52.90
61573;BME280;47465;43.094;12.434;2022-11-06T10:31:39;98664.66;;;15.07;53.42
61573;BME280;47465;43.094;12.434;2022-11-06T10:34:14;98669.66;;;15.14;54.21
61573;BME280;47465;43.094;12.434;2022-11-06T10:36:46;98664.88;;;15.21;55.29
61573;BME280;47465;43.094;12.434;2022-11-06T10:39:21;98664.88;;;15.21;53.96
61573;BME280;47465;43.094;12.434;2022-11-06T10:41:50;98677.84;;;15.30;55.21
61573;BME280;47465;43.094;12.434;2022-11-06T10:44:21;98667.34;;;15.26;53.73
61573;BME280;47465;43.094;12.434;2022-11-06T10:47:03;98688.47;;;15.51;54.64
61573;BME280;47465;43.094;12.434;2022-11-06T10:49:36;98691.97;;;15.53;52.92
61573;BME280;47465;43.094;12.434;2022-11-06T10:58:17;98655.03;;;15.40;53.93
61573;BME280;47465;43.094;12.434;2022-11-06T11:00:52;98684.84;;;15.52;53.59
61573;BME280;47465;43.094;12.434;2022-11-06T11:03:24;98664.94;;;15.38;52.14
61573;BME280;47465;43.094;12.434;2022-11-06T11:05:53;98654.78;;;15.45;53.58
61573;BME280;47465;43.094;12.434;2022-11-06T11:08:32;98654.59;;;15.31;52.64
61573;BME280;47465;43.094;12.434;2022-11-06T11:11:04;98679.47;;;15.52;51.31
61573;BME280;47465;43.094;12.434;2022-11-06T11:13:30;98662.19;;;15.40;53.25
61573;BME280;47465;43.094;12.434;2022-11-06T11:15:57;98649.97;;;15.34;53.61
61573;BME280;47465;43.094;12.434;2022-11-06T11:18:25;98651.03;;;15.49;53.66
61573;BME280;47465;43.094;12.434;2022-11-06T11:21:18;98645.56;;;15.33;51.15
61573;BME280;47465;43.094;12.434;2022-11-06T11:23:46;98657.13;;;15.53;51.95
61573;BME280;47465;43.094;12.434;2022-11-06T11:26:34;98645.09;;;15.43;52.51
61573;BME280;47465;43.094;12.434;2022-11-06T11:29:11;98650.91;;;15.33;53.70
61573;BME280;47465;43.094;12.434;2022-11-06T11:31:38;98640.34;;;15.30;53.32
61573;BME280;47465;43.094;12.434;2022-11-06T11:34:15;98636.00;;;15.28;52.31
61573;BME280;47465;43.094;12.434;2022-11-06T11:40:31;98628.97;;;15.25;52.54
61573;BME280;47465;43.094;12.434;2022-11-06T11:43:25;98621.59;;;15.11;51.87
61573;BME280;47465;43.094;12.434;2022-11-06T11:46:16;98658.44;;;15.25;52.42
61573;BME280;47465;43.094;12.434;2022-11-06T11:48:48;98617.81;;;15.15;51.53
61573;BME280;47465;43.094;12.434;2022-11-06T11:51:28;98647.84;;;15.41;51.37
61573;BME280;47465;43.094;12.434;2022-11-06T11:53:57;98627.00;;;15.29;51.56
61573;BME280;47465;43.094;12.434;2022-11-06T11:56:27;98663.47;;;15.50;51.92
61573;BME280;47465;43.094;12.434;2022-11-06T11:59:01;98621.44;;;15.33;52.00
61573;BME280;47465;43.094;12.434;2022-11-06T12:01:39;98629.38;;;15.35;51.03
61573;BME280;47465;43.094;12.434;2022-11-06T12:10:50;98616.00;;;15.35;51.47
61573;BME280;47465;43.094;12.434;2022-11-06T12:13:19;98609.03;;;15.31;52.56
61573;BME280;47465;43.094;12.434;2022-11-06T12:15:51;98638.66;;;15.47;51.33
61573;BME280;47465;43.094;12.434;2022-11-06T12:18:26;98627.97;;;15.28;52.25
61573;BME280;47465;43.094;12.434;2022-11-06T12:20:57;98626.59;;;15.19;52.63
61573;BME280;47465;43.094;12.434;2022-11-06T12:23:30;98619.06;;;15.27;52.66
61573;BME280;47465;43.094;12.434;2022-11-06T12:26:04;98612.50;;;15.33;52.49
61573;BME280;47465;43.094;12.434;2022-11-06T12:28:40;98615.41;;;15.47;52.81
61573;BME280;47465;43.094;12.434;2022-11-06T12:31:13;98604.22;;;15.56;53.47
61573;BME280;47465;43.094;12.434;2022-11-06T12:33:51;98605.16;;;15.55;53.38
61573;BME280;47465;43.094;12.434;2022-11-06T12:36:24;98632.03;;;15.54;53.71
61573;BME280;47465;43.094;12.434;2022-11-06T12:39:03;98599.34;;;15.28;51.67
61573;BME280;47465;43.094;12.434;2022-11-06T12:41:31;98637.81;;;15.27;52.65
61573;BME280;47465;43.094;12.434;2022-11-06T12:44:02;98625.84;;;15.15;53.32
61573;BME280;47465;43.094;12.434;2022-11-06T12:46:35;98606.63;;;15.07;53.88
61573;BME280;47465;43.094;12.434;2022-11-06T12:49:24;98610.53;;;15.19;54.30
61573;BME280;47465;43.094;12.434;2022-11-06T12:52:07;98627.00;;;15.29;53.08
61573;BME280;47465;43.094;12.434;2022-11-06T12:54:48;98605.16;;;15.19;53.50
61573;BME280;47465;43.094;12.434;2022-11-06T12:57:26;98610.06;;;15.28;53.49
61573;BME280;47465;43.094;12.434;2022-11-06T13:00:06;98607.38;;;15.28;53.44
61573;BME280;47465;43.094;12.434;2022-11-06T13:02:48;98614.09;;;15.37;53.16
61573;BME280;47465;43.094;12.434;2022-11-06T13:05:21;98570.28;;;15.02;52.60
61573;BME280;47465;43.094;12.434;2022-11-06T13:08:21;98577.00;;;15.10;53.05
61573;BME280;47465;43.094;12.434;2022-11-06T13:10:59;98593.13;;;15.28;53.39
61573;BME280;47465;43.094;12.434;2022-11-06T13:13:39;98585.31;;;15.23;53.84
61573;BME280;47465;43.094;12.434;2022-11-06T13:16:18;98589.25;;;15.16;52.19
61573;BME280;47465;43.094;12.434;2022-11-06T13:18:52;98587.88;;;15.07;52.74
61573;BME280;47465;43.094;12.434;2022-11-06T13:21:27;98613.03;;;15.22;52.55
61573;BME280;47465;43.094;12.434;2022-11-06T13:24:02;98625.69;;;15.37;52.35
61573;BME280;47465;43.094;12.434;2022-11-06T13:26:36;98599.06;;;15.15;53.09
61573;BME280;47465;43.094;12.434;2022-11-06T13:29:08;98610.31;;;15.05;52.57